createdAt,value
2023-02-19T05:01:41.858Z,100.00
2023-02-19T05:04:15.471Z,100.00
2023-02-19T05:06:47.530Z,100.00
2023-02-19T05:09:21.216Z,100.00
2023-02-19T05:11:50.409Z,100.00
2023-02-19T05:14:32.494Z,100.00
2023-02-19T05:17:10.774Z,100.00
2023-02-19T05:19:48.900Z,100.00
2023-02-19T05:22:18.475Z,100.00
2023-02-19T05:24:50.657Z,100.00
2023-02-19T05:27:26.327Z,100.00
2023-02-19T05:30:02.597Z,100.00
2023-02-19T06:04:06.228Z,100.00
2023-02-19T06:06:35.885Z,100.00
2023-02-19T06:09:09.449Z,100.00
2023-02-19T06:11:43.692Z,100.00
2023-02-19T06:14:27.000Z,100.00
2023-02-19T06:17:15.305Z,100.00
2023-02-19T06:20:13.906Z,100.00
2023-02-19T06:22:44.404Z,100.00
2023-02-19T06:25:17.790Z,100.00
2023-02-19T06:27:48.653Z,100.00
2023-02-19T06:30:20.726Z,100.00
2023-02-19T06:32:52.527Z,100.00
2023-02-19T06:35:41.866Z,100.00
2023-02-19T06:38:13.031Z,100.00
2023-02-19T06:40:49.642Z,100.00
2023-02-19T06:43:27.796Z,100.00
2023-02-19T06:46:03.858Z,100.00
2023-02-19T06:48:35.559Z,100.00
2023-02-19T06:51:09.121Z,100.00
2023-02-19T06:53:38.509Z,100.00
2023-02-19T06:56:26.037Z,100.00
2023-02-19T06:59:04.689Z,100.00
2023-02-19T07:01:37.526Z,100.00
2023-02-19T07:04:07.599Z,100.00
2023-02-19T07:06:45.096Z,100.00
2023-02-19T07:09:16.224Z,100.00
2023-02-19T07:11:45.249Z,100.00
2023-02-19T07:14:25.155Z,100.00
2023-02-19T07:16:58.484Z,100.00
2023-02-19T07:19:39.290Z,100.00
2023-02-19T07:22:18.815Z,100.00
2023-02-19T07:24:50.165Z,100.00
2023-02-19T07:27:21.523Z,100.00
2023-02-19T07:29:56.237Z,100.00
2023-02-19T07:32:27.714Z,100.00
2023-02-19T07:35:01.905Z,100.00
2023-02-19T07:37:36.799Z,100.00
2023-02-19T07:40:06.818Z,100.00
2023-02-19T07:42:38.329Z,100.00
2023-02-19T07:53:45.264Z,100.00
2023-02-19T08:00:30.199Z,100.00
2023-02-19T08:03:11.398Z,100.00
2023-02-19T08:05:59.470Z,100.00
2023-02-19T08:09:07.734Z,100.00
2023-02-19T08:11:57.377Z,100.00
2023-02-19T08:14:32.780Z,100.00
2023-02-19T08:17:05.809Z,100.00
2023-02-19T08:19:43.691Z,100.00
2023-02-19T08:22:17.142Z,100.00
2023-02-19T08:24:54.243Z,100.00
2023-02-19T08:27:34.143Z,100.00
2023-02-19T08:30:22.127Z,100.00
2023-02-19T08:33:09.208Z,100.00
2023-02-19T08:35:44.903Z,100.00
2023-02-19T08:38:29.390Z,100.00
2023-02-19T08:41:06.565Z,100.00
2023-02-19T08:43:44.514Z,100.00
2023-02-19T08:46:25.196Z,100.00
2023-02-19T08:49:33.061Z,100.00
2023-02-19T08:52:13.661Z,100.00
2023-02-19T08:54:46.970Z,100.00
2023-02-19T08:57:54.257Z,100.00
2023-02-19T09:01:15.998Z,100.00
2023-02-19T09:03:37.883Z,100.00
2023-02-19T09:13:16.034Z,100.00
2023-02-19T09:15:44.736Z,100.00
2023-02-19T09:18:13.938Z,100.00
2023-02-19T09:20:49.762Z,100.00
2023-02-19T09:23:18.853Z,100.00
2023-02-19T09:25:48.607Z,100.00
2023-02-19T09:28:51.939Z,100.00
2023-02-19T09:31:22.568Z,100.00
2023-02-19T09:33:51.934Z,100.00
2023-02-19T09:36:25.303Z,100.00
2023-02-19T09:39:08.233Z,100.00
2023-02-19T09:41:39.830Z,100.00
2023-02-19T09:48:38.086Z,100.00
2023-02-19T09:51:09.432Z,100.00
2023-02-19T09:53:46.682Z,100.00
2023-02-19T09:56:17.234Z,100.00
2023-02-19T09:59:04.495Z,100.00
2023-02-19T10:02:03.386Z,100.00
2023-02-19T10:05:18.731Z,100.00
2023-02-19T10:16:45.237Z,100.00
2023-02-19T10:19:37.615Z,100.00
2023-02-19T10:22:11.906Z,100.00
2023-02-19T10:24:46.764Z,100.00
2023-02-19T10:27:23.352Z,100.00
2023-02-19T10:29:55.871Z,100.00
2023-02-19T10:32:49.734Z,100.00
2023-02-19T10:36:06.503Z,100.00
2023-02-19T10:38:47.794Z,100.00
2023-02-19T10:41:22.737Z,100.00
2023-02-19T10:44:13.972Z,100.00
2023-02-19T10:46:45.964Z,100.00
2023-02-19T10:49:26.649Z,100.00
2023-02-19T10:52:02.824Z,100.00
2023-02-19T10:54:36.198Z,99.74
2023-02-19T10:57:39.129Z,99.25
2023-02-19T11:00:27.227Z,99.79
2023-02-19T11:03:47.981Z,100.00
2023-02-19T11:11:11.988Z,91.79
2023-02-19T11:13:59.841Z,94.62
2023-02-19T11:16:44.984Z,93.32
2023-02-19T11:19:39.185Z,91.94
2023-02-19T11:22:22.199Z,94.29
2023-02-19T11:24:56.695Z,91.21
2023-02-19T11:27:30.498Z,94.00
2023-02-19T11:30:36.243Z,94.85
2023-02-19T11:33:30.632Z,92.83
2023-02-19T11:36:30.486Z,94.44
2023-02-19T11:39:09.366Z,93.72
2023-02-19T11:42:22.500Z,92.04
2023-02-19T11:45:24.717Z,94.28
2023-02-19T11:48:34.077Z,93.18
2023-02-19T11:51:43.208Z,90.34
2023-02-19T11:54:37.660Z,89.42
2023-02-19T11:57:26.677Z,90.60
2023-02-19T12:00:29.998Z,89.79
2023-02-19T12:03:50.661Z,90.86
2023-02-19T12:06:35.606Z,92.37
2023-02-19T12:09:47.776Z,92.72
2023-02-19T12:12:43.734Z,93.99
2023-02-19T12:15:38.482Z,94.85
2023-02-19T12:18:45.605Z,93.39
2023-02-19T12:21:42.623Z,92.78
2023-02-19T12:25:00.902Z,90.26
2023-02-19T12:27:51.640Z,89.97
2023-02-19T12:30:36.983Z,86.21
2023-02-19T12:33:50.901Z,84.50
2023-02-19T12:36:29.158Z,80.69
2023-02-19T12:39:09.072Z,78.98
2023-02-19T12:42:21.508Z,79.43
2023-02-19T12:44:57.865Z,80.21
2023-02-19T12:47:33.880Z,77.96
2023-02-19T12:50:15.735Z,78.05
2023-02-19T12:52:53.618Z,78.54
2023-02-19T12:55:27.203Z,76.18
2023-02-19T12:58:06.970Z,71.32
2023-02-19T13:00:40.742Z,72.47
2023-02-19T13:03:21.143Z,72.75
2023-02-19T13:05:58.655Z,71.71
2023-02-19T13:08:34.181Z,71.17
2023-02-19T13:11:18.789Z,70.52
2023-02-19T13:13:52.824Z,71.88
2023-02-19T13:16:24.282Z,71.21
2023-02-19T13:19:01.261Z,70.63
2023-02-19T13:21:55.517Z,66.40
2023-02-19T13:24:31.513Z,68.67
2023-02-19T13:27:55.555Z,72.67
2023-02-19T13:30:44.926Z,71.88
2023-02-19T13:33:46.588Z,69.77
2023-02-19T13:36:28.030Z,68.98
2023-02-19T13:39:02.699Z,66.87
2023-02-19T13:41:42.660Z,66.13
2023-02-19T13:44:22.994Z,65.93
2023-02-19T13:46:53.929Z,63.63
2023-02-19T13:49:46.391Z,64.99
2023-02-19T13:52:39.772Z,65.89
2023-02-19T13:55:54.912Z,66.92
2023-02-19T13:58:59.760Z,65.03
2023-02-19T14:02:29.373Z,66.91
2023-02-19T14:05:10.456Z,68.64
2023-02-19T14:08:00.115Z,70.10
2023-02-19T14:11:03.495Z,71.62
2023-02-19T14:14:19.894Z,71.75
2023-02-19T14:17:24.416Z,72.81
2023-02-19T14:20:01.921Z,71.39
2023-02-19T14:23:01.686Z,70.26
2023-02-19T14:25:46.958Z,68.79
2023-02-19T14:28:27.147Z,69.07
2023-02-19T14:31:01.577Z,68.90
2023-02-19T14:33:38.248Z,68.61
2023-02-19T14:36:20.088Z,69.17
2023-02-19T14:38:58.458Z,69.14
2023-02-19T14:41:34.744Z,69.20
2023-02-19T14:44:30.785Z,67.47
2023-02-19T14:47:12.020Z,65.05
2023-02-19T14:49:45.967Z,66.44
2023-02-19T14:52:22.022Z,67.05
2023-02-19T14:54:59.073Z,67.57
2023-02-19T14:57:31.701Z,68.21
2023-02-19T15:00:21.057Z,67.66
2023-02-19T15:02:51.433Z,68.60
2023-02-19T15:05:51.374Z,68.15
2023-02-19T15:19:53.328Z,71.86
2023-02-19T15:22:29.792Z,72.35
2023-02-19T15:25:04.835Z,72.19
2023-02-19T15:27:39.615Z,69.55
2023-02-19T15:30:57.066Z,68.09
2023-02-19T15:33:40.264Z,69.69
2023-02-19T15:36:25.313Z,70.61
2023-02-19T15:39:19.206Z,69.13
2023-02-19T15:42:17.219Z,67.36
2023-02-19T15:45:32.735Z,67.46
2023-02-19T15:52:00.275Z,64.47
2023-02-19T15:55:17.947Z,62.74
2023-02-19T15:58:29.113Z,63.77
2023-02-19T16:01:15.412Z,63.89
2023-02-19T16:03:58.656Z,64.78
2023-02-19T16:07:00.819Z,64.71
2023-02-19T16:09:42.508Z,65.28
2023-02-19T16:12:33.068Z,64.24
2023-02-19T16:15:32.028Z,65.49
2023-02-19T16:18:16.954Z,66.32
2023-02-19T16:25:52.034Z,64.97
2023-02-19T16:29:42.820Z,65.48
2023-02-19T16:32:26.331Z,66.93
2023-02-19T16:38:34.458Z,70.87
2023-02-19T16:41:20.093Z,70.30
2023-02-19T16:43:49.554Z,70.89
2023-02-19T16:46:19.952Z,71.14
2023-02-19T16:48:51.638Z,70.26
2023-02-19T16:51:31.276Z,71.62
2023-02-19T16:54:00.421Z,72.67
2023-02-19T16:56:30.528Z,73.18
2023-02-19T16:58:59.649Z,74.38
2023-02-19T17:01:28.857Z,75.92
2023-02-19T17:04:05.742Z,76.91
2023-02-19T17:06:37.816Z,77.45
2023-02-19T17:09:08.519Z,79.06
2023-02-19T17:11:44.058Z,79.65
2023-02-19T17:14:13.089Z,80.28
2023-02-19T17:16:43.564Z,81.02
2023-02-19T17:19:19.850Z,82.45
2023-02-19T17:21:49.295Z,83.32
2023-02-19T17:24:20.759Z,83.85
2023-02-19T17:27:00.170Z,83.62
2023-02-19T17:29:33.902Z,83.96
2023-02-19T17:32:04.208Z,84.76
2023-02-19T17:34:34.610Z,85.95
2023-02-19T17:37:03.691Z,86.19
2023-02-19T17:39:35.543Z,86.12
2023-02-19T17:42:06.176Z,86.49
2023-02-19T17:44:35.069Z,86.45
2023-02-19T17:47:04.346Z,87.07
2023-02-19T17:49:35.293Z,87.80
2023-02-19T17:52:04.647Z,88.29
2023-02-19T17:54:34.373Z,88.79
2023-02-19T17:57:03.423Z,89.53
2023-02-19T17:59:32.333Z,90.83
2023-02-19T18:02:03.292Z,92.06
2023-02-19T18:04:45.967Z,93.02
2023-02-19T18:07:14.962Z,93.97
2023-02-19T18:09:51.094Z,95.35
2023-02-19T18:12:20.185Z,96.01
2023-02-19T18:14:50.406Z,96.96
2023-02-19T18:17:22.065Z,97.60
2023-02-19T18:20:03.887Z,97.69
2023-02-19T18:22:33.716Z,98.77
2023-02-19T18:25:02.708Z,99.42
2023-02-19T18:27:31.683Z,99.98
2023-02-19T18:30:02.037Z,100.00
2023-02-19T18:32:31.494Z,100.00
2023-02-19T18:35:02.152Z,100.00
2023-02-19T18:37:37.382Z,100.00
2023-02-19T18:40:08.740Z,100.00
2023-02-19T18:42:37.956Z,100.00
2023-02-19T18:45:07.623Z,100.00
2023-02-19T18:47:39.223Z,100.00
2023-02-19T18:50:13.118Z,100.00
2023-02-19T18:52:42.371Z,100.00
2023-02-19T18:55:13.685Z,100.00
2023-02-19T18:57:50.250Z,100.00
2023-02-19T19:00:25.687Z,100.00
2023-02-19T19:02:58.243Z,100.00
2023-02-19T19:05:31.426Z,100.00
2023-02-19T19:08:07.690Z,100.00
2023-02-19T19:10:40.479Z,100.00
2023-02-19T19:13:11.225Z,100.00
2023-02-19T19:15:41.597Z,100.00
2023-02-19T19:18:10.779Z,100.00
2023-02-19T19:20:43.828Z,100.00
2023-02-19T19:23:14.885Z,100.00
2023-02-19T19:25:47.040Z,100.00
2023-02-19T19:28:20.515Z,100.00
2023-02-19T19:30:50.002Z,100.00
2023-02-19T19:33:32.889Z,100.00
2023-02-19T19:36:04.725Z,100.00
2023-02-19T19:38:40.369Z,100.00
2023-02-19T19:41:12.410Z,100.00
2023-02-19T19:43:42.936Z,100.00
2023-02-19T19:46:14.126Z,100.00
2023-02-19T19:48:57.800Z,100.00
2023-02-19T19:51:39.736Z,100.00
2023-02-19T19:54:14.624Z,100.00
2023-02-19T19:56:51.146Z,100.00
2023-02-19T19:59:23.782Z,100.00
2023-02-19T20:01:55.754Z,100.00
2023-02-19T20:04:27.133Z,100.00
2023-02-19T20:07:03.076Z,100.00
2023-02-19T20:09:39.197Z,100.00
2023-02-19T20:12:13.054Z,100.00
2023-02-19T20:14:48.496Z,100.00
2023-02-19T20:17:17.612Z,100.00
2023-02-19T20:19:50.587Z,100.00
2023-02-19T20:22:21.028Z,100.00
2023-02-19T20:24:52.055Z,100.00
2023-02-19T20:27:25.243Z,100.00
2023-02-19T20:29:56.179Z,100.00
2023-02-19T20:32:30.718Z,100.00
2023-02-19T20:35:01.956Z,100.00
2023-02-19T20:37:32.522Z,100.00
2023-02-19T20:40:01.820Z,100.00
2023-02-19T20:42:31.072Z,100.00
2023-02-19T20:44:59.988Z,100.00
2023-02-19T20:47:30.733Z,100.00
2023-02-19T20:50:00.660Z,100.00
2023-02-19T20:52:36.875Z,100.00
2023-02-19T20:55:06.821Z,100.00
2023-02-19T20:57:38.564Z,100.00
2023-02-19T21:00:11.256Z,100.00
2023-02-19T21:02:42.662Z,100.00
2023-02-19T21:05:13.739Z,100.00
2023-02-19T21:07:46.460Z,100.00
2023-02-19T21:10:41.449Z,100.00
2023-02-19T21:13:25.548Z,100.00
2023-02-19T21:16:01.861Z,100.00
2023-02-19T21:19:13.909Z,100.00
2023-02-19T21:21:45.597Z,100.00
2023-02-19T21:24:20.206Z,100.00
2023-02-19T21:26:49.892Z,100.00
2023-02-19T21:29:23.811Z,100.00
2023-02-19T21:32:21.663Z,100.00
2023-02-19T21:35:16.399Z,100.00
2023-02-19T21:37:48.032Z,100.00
2023-02-19T21:40:20.099Z,100.00
2023-02-19T21:42:51.638Z,100.00
2023-02-19T21:45:21.858Z,100.00
2023-02-19T21:47:52.982Z,100.00
2023-02-19T21:50:22.203Z,100.00
2023-02-19T21:52:53.545Z,100.00
2023-02-19T21:55:26.964Z,100.00
2023-02-19T21:57:57.915Z,100.00
2023-02-19T22:00:26.849Z,100.00
2023-02-19T22:02:58.520Z,100.00
2023-02-19T22:05:29.476Z,100.00
2023-02-19T22:08:02.805Z,100.00
2023-02-19T22:10:35.938Z,100.00
2023-02-19T22:13:05.081Z,100.00
2023-02-19T22:15:39.029Z,100.00
2023-02-19T22:18:10.642Z,100.00
2023-02-19T22:20:39.698Z,100.00
2023-02-19T22:23:11.655Z,100.00
2023-02-19T22:25:42.081Z,100.00
2023-02-19T22:28:17.278Z,100.00
2023-02-19T22:30:48.244Z,100.00
2023-02-19T22:33:19.362Z,100.00
2023-02-19T22:35:48.360Z,100.00
2023-02-19T22:38:21.937Z,100.00
2023-02-19T22:40:54.781Z,100.00
2023-02-19T22:43:24.033Z,100.00
2023-02-19T22:45:55.296Z,100.00
2023-02-19T22:48:30.113Z,100.00
2023-02-19T22:51:04.577Z,100.00
2023-02-19T22:53:34.794Z,100.00
2023-02-19T22:56:09.842Z,100.00
2023-02-19T22:58:41.061Z,100.00
2023-02-19T23:01:16.288Z,100.00
2023-02-19T23:03:52.827Z,100.00
2023-02-19T23:06:25.359Z,100.00
2023-02-19T23:08:54.995Z,100.00
2023-02-19T23:11:31.041Z,100.00
2023-02-19T23:14:06.525Z,100.00
2023-02-19T23:16:51.880Z,100.00
2023-02-19T23:19:21.125Z,100.00
2023-02-19T23:21:50.924Z,100.00
2023-02-19T23:24:21.994Z,100.00
2023-02-19T23:26:54.588Z,100.00
2023-02-19T23:29:26.738Z,100.00
2023-02-19T23:31:59.790Z,100.00
2023-02-19T23:34:31.189Z,100.00
2023-02-19T23:37:00.332Z,100.00
2023-02-19T23:39:31.077Z,100.00
2023-02-19T23:42:06.244Z,100.00
2023-02-19T23:44:35.614Z,100.00
2023-02-19T23:47:10.620Z,100.00
2023-02-19T23:49:40.942Z,100.00
2023-02-19T23:52:10.249Z,100.00
2023-02-19T23:54:39.525Z,100.00
2023-02-19T23:57:25.647Z,100.00
2023-02-19T23:59:54.871Z,100.00
